createdAt,value
2023-03-16T00:01:59.387Z,81.73
2023-03-16T00:04:25.747Z,81.65
2023-03-16T00:06:52.317Z,81.75
2023-03-16T00:09:18.657Z,81.68
2023-03-16T00:11:45.253Z,81.86
2023-03-16T00:14:11.594Z,81.65
2023-03-16T00:16:37.991Z,81.55
2023-03-16T00:19:04.355Z,81.57
2023-03-16T00:21:30.730Z,81.73
2023-03-16T00:23:57.089Z,81.51
2023-03-16T00:26:23.439Z,82.04
2023-03-16T00:28:49.772Z,81.87
2023-03-16T00:31:16.124Z,81.95
2023-03-16T00:33:42.736Z,81.73
2023-03-16T00:36:09.122Z,81.79
2023-03-16T00:38:35.508Z,81.68
2023-03-16T00:41:01.871Z,81.97
2023-03-16T00:43:28.218Z,81.70
2023-03-16T00:45:54.568Z,81.48
2023-03-16T00:48:20.931Z,81.84
2023-03-16T00:50:47.266Z,81.47
2023-03-16T00:53:13.611Z,81.90
2023-03-16T00:55:39.965Z,82.08
2023-03-16T00:58:06.339Z,81.93
2023-03-16T01:00:32.681Z,81.97
2023-03-16T01:02:59.049Z,81.19
2023-03-16T01:05:25.412Z,81.68
2023-03-16T01:07:51.758Z,81.70
2023-03-16T01:10:18.326Z,81.61
2023-03-16T01:12:44.661Z,82.00
2023-03-16T01:15:11.018Z,81.52
2023-03-16T01:17:37.379Z,81.96
2023-03-16T01:20:03.735Z,81.50
2023-03-16T01:22:30.106Z,81.77
2023-03-16T01:24:56.465Z,81.99
2023-03-16T01:27:22.824Z,81.52
2023-03-16T01:29:49.168Z,81.82
2023-03-16T01:32:15.744Z,81.88
2023-03-16T01:34:42.090Z,81.48
2023-03-16T01:37:08.440Z,81.82
2023-03-16T01:39:34.780Z,82.25
2023-03-16T01:42:01.128Z,81.49
2023-03-16T01:44:27.482Z,81.70
2023-03-16T01:46:53.827Z,81.72
2023-03-16T01:49:20.173Z,82.03
2023-03-16T01:51:46.526Z,81.79
2023-03-16T01:54:13.086Z,81.71
2023-03-16T01:56:39.452Z,81.81
2023-03-16T01:59:05.813Z,82.19
2023-03-16T02:01:32.171Z,82.05
2023-03-16T02:03:58.542Z,81.55
2023-03-16T02:06:25.121Z,81.78
2023-03-16T02:08:51.489Z,82.13
2023-03-16T02:11:17.845Z,81.97
2023-03-16T02:13:44.211Z,81.98
2023-03-16T02:16:10.647Z,81.72
2023-03-16T02:18:37.065Z,81.70
2023-03-16T02:21:03.511Z,81.63
2023-03-16T02:23:29.852Z,81.75
2023-03-16T02:25:56.196Z,81.68
2023-03-16T02:28:22.579Z,81.59
2023-03-16T02:30:48.959Z,82.01
2023-03-16T02:33:34.155Z,81.99
2023-03-16T02:36:00.537Z,81.80
2023-03-16T02:38:26.898Z,81.77
2023-03-16T02:40:53.239Z,81.89
2023-03-16T02:43:19.557Z,81.79
2023-03-16T02:45:45.916Z,81.72
2023-03-16T02:48:12.249Z,81.79
2023-03-16T02:50:39.196Z,82.22
2023-03-16T02:53:06.521Z,81.58
2023-03-16T02:55:32.868Z,82.01
2023-03-16T02:57:59.639Z,82.27
2023-03-16T03:00:26.522Z,81.99
2023-03-16T03:02:53.222Z,81.87
2023-03-16T03:05:19.617Z,82.28
2023-03-16T03:07:46.206Z,81.70
2023-03-16T03:10:12.548Z,81.46
2023-03-16T03:12:38.922Z,81.50
2023-03-16T03:15:05.284Z,81.46
2023-03-16T03:17:31.856Z,81.88
2023-03-16T03:19:58.195Z,82.05
2023-03-16T03:22:24.540Z,81.68
2023-03-16T03:24:50.903Z,81.61
2023-03-16T03:27:17.231Z,81.68
2023-03-16T03:29:43.787Z,81.91
2023-03-16T03:32:10.148Z,81.92
2023-03-16T03:34:37.490Z,81.83
2023-03-16T03:37:03.823Z,81.83
2023-03-16T03:39:30.159Z,81.72
2023-03-16T03:41:56.543Z,81.48
2023-03-16T03:44:22.909Z,82.14
2023-03-16T03:46:49.477Z,81.90
2023-03-16T03:49:15.834Z,81.77
2023-03-16T03:51:42.180Z,82.04
2023-03-16T03:54:08.560Z,82.03
2023-03-16T03:56:35.135Z,81.71
2023-03-16T03:59:01.493Z,82.12
2023-03-16T04:01:27.832Z,81.87
2023-03-16T04:03:54.200Z,82.16
2023-03-16T04:06:20.564Z,81.95
2023-03-16T04:08:46.924Z,82.13
2023-03-16T04:11:13.265Z,82.08
2023-03-16T04:13:39.617Z,82.08
2023-03-16T04:16:05.966Z,81.90
2023-03-16T04:18:32.349Z,81.79
2023-03-16T04:20:58.707Z,82.22
2023-03-16T04:23:25.117Z,81.95
2023-03-16T04:25:51.540Z,81.82
2023-03-16T04:28:17.996Z,81.99
2023-03-16T04:30:44.480Z,82.13
2023-03-16T04:33:10.838Z,81.95
2023-03-16T04:35:37.453Z,82.07
2023-03-16T04:38:03.868Z,81.71
2023-03-16T04:40:30.243Z,82.16
2023-03-16T04:42:56.578Z,81.68
2023-03-16T04:45:22.950Z,82.04
2023-03-16T04:47:49.302Z,82.01
2023-03-16T04:50:15.638Z,82.07
2023-03-16T04:52:42.183Z,82.24
2023-03-16T04:55:08.506Z,82.38
2023-03-16T04:57:35.058Z,82.14
2023-03-16T05:00:01.424Z,82.03
2023-03-16T05:02:27.784Z,81.87
2023-03-16T05:04:54.112Z,82.09
2023-03-16T05:07:20.689Z,81.98
2023-03-16T05:09:47.042Z,81.96
2023-03-16T05:12:13.590Z,81.92
2023-03-16T05:14:39.946Z,81.90
2023-03-16T05:17:06.300Z,82.15
2023-03-16T05:19:32.658Z,82.11
2023-03-16T05:21:59.247Z,82.45
2023-03-16T05:24:25.604Z,82.22
2023-03-16T05:26:51.949Z,82.61
2023-03-16T05:29:18.493Z,82.54
2023-03-16T05:31:44.809Z,82.29
2023-03-16T05:34:11.155Z,82.05
2023-03-16T05:36:37.534Z,81.79
2023-03-16T05:39:03.880Z,81.63
2023-03-16T05:41:30.216Z,82.52
2023-03-16T05:43:56.544Z,81.97
2023-03-16T05:46:22.943Z,82.00
2023-03-16T05:48:49.285Z,82.01
2023-03-16T05:51:15.903Z,82.01
2023-03-16T05:53:42.235Z,81.82
2023-03-16T05:56:08.583Z,81.98
2023-03-16T05:58:34.920Z,82.04
2023-03-16T06:01:01.278Z,82.10
2023-03-16T06:03:27.629Z,81.91
2023-03-16T06:05:53.949Z,81.98
2023-03-16T06:08:20.321Z,81.99
2023-03-16T06:10:46.662Z,81.74
2023-03-16T06:13:13.601Z,81.53
2023-03-16T06:15:39.941Z,82.24
2023-03-16T06:18:06.305Z,82.02
2023-03-16T06:20:32.653Z,81.76
2023-03-16T06:22:59.010Z,81.91
2023-03-16T06:25:25.343Z,81.95
2023-03-16T06:27:51.706Z,82.21
2023-03-16T06:30:18.068Z,82.24
2023-03-16T06:32:44.473Z,82.48
2023-03-16T06:35:10.828Z,81.85
2023-03-16T06:37:37.198Z,81.94
2023-03-16T06:40:04.037Z,82.22
2023-03-16T06:42:30.396Z,81.94
2023-03-16T06:44:56.741Z,82.18
2023-03-16T06:47:23.123Z,81.84
2023-03-16T06:49:49.488Z,81.82
2023-03-16T06:52:15.831Z,81.71
2023-03-16T06:54:42.713Z,82.06
2023-03-16T06:57:11.827Z,81.81
2023-03-16T06:59:38.187Z,81.92
2023-03-16T07:02:04.557Z,81.87
2023-03-16T07:04:30.949Z,82.15
2023-03-16T07:06:57.355Z,82.07
2023-03-16T07:09:23.709Z,81.90
2023-03-16T07:11:50.056Z,81.79
2023-03-16T07:14:16.382Z,82.07
2023-03-16T07:16:43.000Z,82.27
2023-03-16T07:19:09.363Z,81.88
2023-03-16T07:21:35.685Z,82.01
2023-03-16T07:24:02.009Z,81.97
2023-03-16T07:26:28.356Z,82.21
2023-03-16T07:28:57.563Z,81.93
2023-03-16T07:31:24.407Z,81.77
2023-03-16T07:33:50.784Z,81.56
2023-03-16T07:36:17.181Z,81.38
2023-03-16T07:38:43.541Z,81.62
2023-03-16T07:41:09.872Z,81.74
2023-03-16T07:43:36.234Z,81.80
2023-03-16T07:46:02.611Z,81.96
2023-03-16T07:48:28.990Z,82.40
2023-03-16T07:50:55.318Z,81.75
2023-03-16T07:53:21.704Z,81.70
2023-03-16T07:55:48.059Z,81.52
2023-03-16T07:58:14.399Z,81.93
2023-03-16T08:00:41.247Z,81.67
2023-03-16T08:03:07.647Z,82.22
2023-03-16T08:05:34.060Z,82.23
2023-03-16T08:08:01.709Z,82.06
2023-03-16T08:10:28.343Z,82.25
2023-03-16T08:12:55.468Z,82.32
2023-03-16T08:15:21.838Z,82.71
2023-03-16T08:17:48.181Z,82.61
2023-03-16T08:20:14.553Z,82.62
2023-03-16T08:22:40.912Z,83.24
2023-03-16T08:25:07.332Z,83.44
2023-03-16T08:27:33.685Z,83.30
2023-03-16T08:30:00.552Z,83.61
2023-03-16T08:32:26.897Z,83.51
2023-03-16T08:34:54.794Z,83.26
2023-03-16T08:37:21.171Z,82.83
2023-03-16T08:39:47.506Z,82.97
2023-03-16T08:42:15.775Z,83.38
2023-03-16T08:44:42.054Z,83.48
2023-03-16T08:47:08.916Z,83.91
2023-03-16T08:49:35.271Z,83.88
2023-03-16T08:52:01.639Z,84.32
2023-03-16T08:54:27.978Z,84.25
2023-03-16T08:56:54.302Z,84.23
2023-03-16T08:59:29.793Z,84.12
2023-03-16T09:01:56.949Z,84.21
2023-03-16T09:04:23.442Z,83.94
2023-03-16T09:07:02.336Z,83.62
2023-03-16T09:09:34.092Z,83.76
2023-03-16T09:12:00.889Z,83.82
2023-03-16T09:14:27.257Z,84.04
2023-03-16T09:16:53.598Z,83.81
2023-03-16T09:19:19.951Z,83.22
2023-03-16T09:21:47.417Z,83.28
2023-03-16T09:24:13.850Z,83.42
2023-03-16T09:26:40.257Z,83.27
2023-03-16T09:29:06.639Z,83.34
2023-03-16T09:31:33.009Z,83.61
2023-03-16T09:33:59.388Z,83.77
2023-03-16T09:36:25.749Z,83.54
2023-03-16T09:38:52.091Z,83.48
2023-03-16T09:41:18.442Z,83.31
2023-03-16T09:43:45.848Z,83.57
2023-03-16T09:46:12.228Z,83.32
2023-03-16T09:48:38.908Z,83.36
2023-03-16T09:51:07.020Z,83.61
2023-03-16T09:53:33.394Z,83.56
2023-03-16T09:56:00.250Z,83.40
2023-03-16T09:58:26.712Z,83.28
2023-03-16T10:00:53.122Z,83.48
2023-03-16T10:03:20.006Z,83.34
2023-03-16T10:05:46.343Z,83.40
2023-03-16T10:08:12.708Z,83.30
2023-03-16T10:10:39.291Z,83.43
2023-03-16T10:13:05.634Z,83.49
2023-03-16T10:15:31.959Z,83.62
2023-03-16T10:17:58.333Z,83.55
2023-03-16T10:20:24.706Z,83.76
2023-03-16T10:22:51.058Z,83.27
2023-03-16T10:25:17.901Z,82.80
2023-03-16T10:27:44.807Z,82.99
2023-03-16T10:30:11.310Z,83.37
2023-03-16T10:32:37.881Z,83.38
2023-03-16T10:35:04.236Z,83.28
2023-03-16T10:37:31.357Z,83.10
2023-03-16T10:39:57.727Z,83.54
2023-03-16T10:42:24.066Z,83.21
2023-03-16T10:44:50.877Z,83.64
2023-03-16T10:47:17.335Z,83.48
2023-03-16T10:49:43.891Z,83.20
2023-03-16T10:52:10.251Z,83.49
2023-03-16T10:54:36.775Z,83.53
2023-03-16T10:57:03.107Z,83.31
2023-03-16T10:59:29.675Z,83.31
2023-03-16T11:01:56.034Z,83.56
2023-03-16T11:04:22.437Z,83.49
2023-03-16T11:06:48.861Z,83.51
2023-03-16T11:09:15.216Z,83.46
2023-03-16T11:11:41.577Z,82.68
2023-03-16T11:14:07.934Z,83.48
2023-03-16T11:16:34.617Z,83.66
2023-03-16T11:19:01.008Z,83.54
2023-03-16T11:21:27.602Z,83.76
2023-03-16T11:23:53.946Z,83.68
2023-03-16T11:26:20.473Z,83.84
2023-03-16T11:28:46.813Z,83.63
2023-03-16T11:31:13.423Z,83.61
2023-03-16T11:33:39.772Z,83.48
2023-03-16T11:36:06.349Z,83.76
2023-03-16T11:38:32.710Z,83.77
2023-03-16T11:40:59.994Z,84.12
2023-03-16T11:43:26.345Z,83.49
2023-03-16T11:45:52.711Z,83.70
2023-03-16T11:48:19.093Z,83.85
2023-03-16T11:50:45.643Z,83.72
2023-03-16T11:53:11.999Z,83.59
2023-03-16T11:55:38.357Z,83.71
2023-03-16T11:58:04.725Z,83.73
2023-03-16T12:00:31.055Z,83.85
2023-03-16T12:02:57.827Z,83.92
2023-03-16T12:05:24.223Z,83.91
2023-03-16T12:07:50.750Z,84.26
2023-03-16T12:10:17.147Z,83.95
2023-03-16T12:12:43.754Z,84.16
2023-03-16T12:15:10.082Z,84.34
2023-03-16T12:17:36.605Z,84.01
2023-03-16T12:20:02.950Z,84.02
2023-03-16T12:22:29.515Z,84.18
2023-03-16T12:24:55.883Z,84.35
2023-03-16T12:27:22.245Z,84.35
2023-03-16T12:29:48.596Z,84.24
2023-03-16T12:32:14.934Z,83.98
2023-03-16T12:34:41.479Z,84.27
2023-03-16T12:37:07.878Z,84.46
2023-03-16T12:39:34.233Z,83.97
2023-03-16T12:42:00.616Z,84.40
2023-03-16T12:44:26.945Z,84.42
2023-03-16T12:46:53.287Z,84.07
2023-03-16T12:49:19.630Z,84.37
2023-03-16T12:51:45.993Z,84.29
2023-03-16T12:54:12.534Z,84.44
2023-03-16T12:56:38.880Z,84.53
2023-03-16T12:59:05.233Z,84.35
2023-03-16T13:01:31.702Z,84.58
2023-03-16T13:03:58.090Z,84.32
2023-03-16T13:06:24.510Z,84.27
2023-03-16T13:08:50.883Z,83.99
2023-03-16T13:11:17.240Z,84.55
2023-03-16T13:13:43.593Z,84.78
2023-03-16T13:16:10.218Z,84.62
2023-03-16T13:18:36.634Z,84.47
2023-03-16T13:21:03.000Z,84.73
2023-03-16T13:23:29.354Z,84.64
2023-03-16T13:25:55.755Z,84.64
2023-03-16T13:28:22.109Z,84.88
2023-03-16T13:30:48.594Z,84.68
2023-03-16T13:33:15.028Z,84.26
2023-03-16T13:35:41.373Z,84.55
2023-03-16T13:38:07.828Z,84.73
2023-03-16T13:40:34.374Z,84.70
2023-03-16T13:43:00.740Z,84.55
2023-03-16T13:45:27.276Z,84.59
2023-03-16T13:47:53.616Z,84.54
2023-03-16T13:50:20.151Z,84.51
2023-03-16T13:52:46.493Z,84.55
2023-03-16T13:55:13.918Z,84.44
2023-03-16T13:57:40.261Z,84.47
2023-03-16T14:00:06.621Z,84.41
2023-03-16T14:02:32.984Z,84.61
2023-03-16T14:04:59.340Z,84.35
2023-03-16T14:07:25.704Z,84.48
2023-03-16T14:09:52.065Z,84.51
2023-03-16T14:12:18.429Z,84.45
2023-03-16T14:14:44.766Z,84.52
2023-03-16T14:17:11.092Z,84.43
2023-03-16T14:19:37.449Z,84.48
2023-03-16T14:22:03.790Z,84.44
2023-03-16T14:24:30.110Z,84.58
2023-03-16T14:26:56.465Z,84.48
2023-03-16T14:29:22.795Z,84.33
2023-03-16T14:31:49.149Z,84.26
2023-03-16T14:34:15.527Z,84.30
2023-03-16T14:36:42.120Z,83.81
2023-03-16T14:39:08.702Z,83.29
2023-03-16T14:41:35.129Z,82.86
2023-03-16T14:44:01.495Z,82.68
2023-03-16T14:46:28.096Z,82.74
2023-03-16T14:48:54.494Z,82.83
2023-03-16T14:51:20.832Z,82.94
2023-03-16T14:53:47.212Z,82.78
2023-03-16T14:56:13.609Z,82.79
2023-03-16T14:58:39.976Z,82.90
2023-03-16T15:01:06.337Z,82.97
2023-03-16T15:03:32.893Z,83.11
2023-03-16T15:05:59.257Z,83.00
2023-03-16T15:08:25.606Z,83.32
2023-03-16T15:10:51.975Z,83.28
2023-03-16T15:13:18.324Z,83.19
2023-03-16T15:15:44.755Z,83.20
2023-03-16T15:18:11.133Z,83.15
2023-03-16T15:20:37.487Z,82.99
2023-03-16T15:23:03.834Z,82.87
2023-03-16T15:25:30.172Z,82.88
2023-03-16T15:27:56.537Z,82.74
2023-03-16T15:30:22.905Z,82.77
2023-03-16T15:32:49.295Z,83.05
2023-03-16T15:35:15.699Z,83.07
2023-03-16T15:37:42.036Z,83.05
2023-03-16T15:40:08.377Z,83.15
2023-03-16T15:42:34.699Z,83.12
2023-03-16T15:45:01.057Z,83.24
2023-03-16T15:47:27.413Z,83.19
2023-03-16T15:49:53.942Z,83.20
2023-03-16T15:52:20.310Z,83.17
2023-03-16T15:54:46.835Z,83.17
2023-03-16T15:57:13.176Z,83.20
2023-03-16T15:59:39.694Z,83.17
2023-03-16T16:02:06.053Z,83.21
2023-03-16T16:04:32.676Z,83.30
2023-03-16T16:06:59.055Z,83.36
2023-03-16T16:09:25.620Z,83.36
2023-03-16T16:11:52.000Z,83.49
2023-03-16T16:14:18.659Z,83.57
2023-03-16T16:16:45.047Z,83.47
2023-03-16T16:19:11.445Z,83.49
2023-03-16T16:21:37.798Z,83.61
2023-03-16T16:24:04.120Z,83.55
2023-03-16T16:26:45.495Z,83.63
2023-03-16T16:29:14.061Z,83.55
2023-03-16T16:31:40.446Z,83.55
2023-03-16T16:34:06.834Z,83.56
2023-03-16T16:36:33.181Z,83.59
2023-03-16T16:38:59.539Z,83.57
2023-03-16T16:41:25.905Z,83.66
2023-03-16T16:43:52.254Z,83.63
2023-03-16T16:46:18.715Z,83.68
2023-03-16T16:48:45.089Z,83.67
2023-03-16T16:51:11.436Z,83.77
2023-03-16T16:53:37.775Z,83.81
2023-03-16T16:56:04.114Z,83.80
2023-03-16T16:58:30.459Z,83.83
2023-03-16T17:00:56.849Z,83.82
2023-03-16T17:03:23.244Z,83.81
2023-03-16T17:05:49.596Z,83.85
2023-03-16T17:08:15.961Z,83.85
2023-03-16T17:10:42.302Z,83.86
2023-03-16T17:13:08.660Z,84.00
2023-03-16T17:15:35.020Z,83.93
2023-03-16T17:18:01.363Z,83.86
2023-03-16T17:20:27.692Z,83.95
2023-03-16T17:22:54.034Z,83.83
2023-03-16T17:25:20.393Z,83.88
2023-03-16T17:27:46.715Z,83.94
2023-03-16T17:30:13.063Z,83.84
2023-03-16T17:32:39.412Z,83.89
2023-03-16T17:35:05.783Z,83.89
2023-03-16T17:37:32.139Z,83.91
2023-03-16T17:39:58.471Z,83.92
2023-03-16T17:42:24.823Z,83.79
2023-03-16T17:44:51.173Z,83.81
2023-03-16T17:47:17.518Z,83.76
2023-03-16T17:49:43.875Z,83.76
2023-03-16T17:52:10.231Z,83.74
2023-03-16T17:54:36.584Z,83.63
2023-03-16T17:57:03.125Z,83.61
2023-03-16T17:59:29.472Z,83.67
2023-03-16T18:01:55.885Z,83.64
2023-03-16T18:04:22.292Z,83.61
2023-03-16T18:06:48.657Z,83.61
2023-03-16T18:09:15.022Z,83.62
2023-03-16T18:11:41.383Z,83.66
2023-03-16T18:14:07.878Z,83.63
2023-03-16T18:16:34.240Z,83.65
2023-03-16T18:19:00.792Z,83.49
2023-03-16T18:21:27.133Z,83.43
2023-03-16T18:23:53.716Z,83.66
2023-03-16T18:26:20.058Z,83.40
2023-03-16T18:28:46.471Z,83.44
2023-03-16T18:31:12.883Z,83.77
2023-03-16T18:33:39.498Z,83.73
2023-03-16T18:36:05.880Z,84.11
2023-03-16T18:38:32.384Z,83.97
2023-03-16T18:40:58.712Z,83.71
2023-03-16T18:43:27.182Z,83.49
2023-03-16T18:45:54.860Z,84.40
2023-03-16T18:48:21.460Z,84.49
2023-03-16T18:50:48.035Z,85.27
2023-03-16T18:53:14.378Z,85.39
2023-03-16T18:55:40.736Z,85.48
2023-03-16T18:58:07.103Z,85.78
2023-03-16T19:00:34.459Z,86.05
2023-03-16T19:03:00.792Z,85.60
2023-03-16T19:05:27.514Z,85.74
2023-03-16T19:07:54.062Z,86.31
2023-03-16T19:10:20.407Z,86.53
2023-03-16T19:12:46.751Z,86.57
2023-03-16T19:15:13.083Z,86.54
2023-03-16T19:17:39.642Z,86.59
2023-03-16T19:20:05.984Z,86.53
2023-03-16T19:22:32.340Z,86.54
2023-03-16T19:24:58.690Z,86.57
2023-03-16T19:27:25.257Z,86.50
2023-03-16T19:29:52.400Z,86.57
2023-03-16T19:32:18.819Z,86.37
2023-03-16T19:34:45.380Z,86.60
2023-03-16T19:37:11.742Z,86.26
2023-03-16T19:39:38.332Z,86.47
2023-03-16T19:42:04.678Z,86.71
2023-03-16T19:44:31.042Z,86.64
2023-03-16T19:46:57.389Z,86.68
2023-03-16T19:49:23.740Z,86.62
2023-03-16T19:51:50.084Z,86.61
2023-03-16T19:54:16.643Z,86.65
2023-03-16T19:56:43.210Z,86.81
2023-03-16T19:59:09.577Z,86.81
2023-03-16T20:01:36.171Z,86.73
2023-03-16T20:04:02.666Z,86.47
2023-03-16T20:06:29.083Z,86.75
2023-03-16T20:08:55.458Z,86.59
2023-03-16T20:11:22.839Z,86.64
2023-03-16T20:13:49.203Z,86.79
2023-03-16T20:16:15.551Z,86.59
2023-03-16T20:18:41.930Z,86.47
2023-03-16T20:21:08.268Z,86.54
2023-03-16T20:23:34.807Z,86.59
2023-03-16T20:26:02.998Z,86.67
2023-03-16T20:28:29.562Z,86.42
2023-03-16T20:30:55.992Z,86.38
2023-03-16T20:33:24.047Z,86.36
2023-03-16T20:35:50.544Z,86.43
2023-03-16T20:38:16.932Z,86.32
2023-03-16T20:40:43.519Z,86.33
2023-03-16T20:43:12.532Z,86.29
2023-03-16T20:45:41.096Z,86.32
2023-03-16T20:48:07.461Z,85.37
2023-03-16T20:50:33.805Z,86.16
2023-03-16T20:53:00.170Z,86.30
2023-03-16T20:55:26.520Z,86.32
2023-03-16T20:57:52.872Z,86.15
2023-03-16T21:00:19.219Z,85.71
2023-03-16T21:02:45.576Z,85.94
2023-03-16T21:05:11.931Z,85.98
2023-03-16T21:07:38.359Z,86.05
2023-03-16T21:10:04.748Z,86.05
2023-03-16T21:12:31.097Z,85.60
2023-03-16T21:14:57.448Z,85.68
2023-03-16T21:17:26.386Z,85.69
2023-03-16T21:19:53.095Z,85.96
2023-03-16T21:22:19.482Z,86.01
2023-03-16T21:24:46.040Z,85.63
2023-03-16T21:27:12.584Z,85.28
2023-03-16T21:29:38.916Z,85.62
2023-03-16T21:32:05.528Z,84.89
2023-03-16T21:34:31.936Z,85.33
2023-03-16T21:36:58.489Z,85.27
2023-03-16T21:39:25.022Z,85.01
2023-03-16T21:41:51.560Z,85.14
2023-03-16T21:44:17.915Z,84.73
2023-03-16T21:46:44.493Z,85.09
2023-03-16T21:49:10.890Z,84.87
2023-03-16T21:51:37.455Z,84.55
2023-03-16T21:54:03.817Z,84.84
2023-03-16T21:56:30.400Z,84.85
2023-03-16T21:58:56.753Z,85.06
2023-03-16T22:01:23.429Z,84.62
2023-03-16T22:03:51.434Z,84.20
2023-03-16T22:06:17.938Z,84.54
2023-03-16T22:08:44.289Z,84.24
2023-03-16T22:11:10.911Z,84.34
2023-03-16T22:13:37.266Z,84.60
2023-03-16T22:16:03.956Z,84.47
2023-03-16T22:18:30.390Z,83.75
2023-03-16T22:20:56.775Z,84.42
2023-03-16T22:23:23.188Z,84.25
2023-03-16T22:25:49.785Z,84.22
2023-03-16T22:28:16.164Z,84.37
2023-03-16T22:30:42.537Z,84.17
2023-03-16T22:33:08.893Z,84.11
2023-03-16T22:35:35.263Z,84.05
2023-03-16T22:38:01.651Z,83.99
2023-03-16T22:40:30.643Z,83.67
2023-03-16T22:42:57.006Z,83.88
2023-03-16T22:45:23.365Z,83.67
2023-03-16T22:47:49.738Z,84.04
2023-03-16T22:50:16.109Z,83.76
2023-03-16T22:52:42.435Z,83.76
2023-03-16T22:55:08.787Z,83.85
2023-03-16T22:57:35.136Z,83.81
2023-03-16T23:00:01.499Z,84.00
2023-03-16T23:02:28.858Z,83.90
2023-03-16T23:04:55.252Z,83.45
2023-03-16T23:07:21.637Z,83.60
2023-03-16T23:09:48.222Z,83.08
2023-03-16T23:12:14.603Z,83.12
2023-03-16T23:14:40.953Z,82.70
2023-03-16T23:17:07.298Z,83.12
2023-03-16T23:19:33.651Z,83.33
2023-03-16T23:21:59.975Z,82.88
2023-03-16T23:24:26.344Z,82.99
2023-03-16T23:26:52.707Z,83.07
2023-03-16T23:29:19.249Z,82.81
2023-03-16T23:31:45.579Z,83.24
2023-03-16T23:34:11.923Z,82.89
2023-03-16T23:36:38.276Z,82.51
2023-03-16T23:39:04.834Z,82.48
2023-03-16T23:41:31.253Z,82.16
2023-03-16T23:43:57.605Z,82.46
2023-03-16T23:46:24.013Z,82.40
2023-03-16T23:48:50.405Z,81.89
2023-03-16T23:51:18.256Z,81.86
2023-03-16T23:53:45.658Z,81.60
2023-03-16T23:56:11.992Z,81.74
2023-03-16T23:58:38.556Z,81.45
